sensor_id;sensor_type;location;lat;lon;timestamp;P1;durP1;ratioP1;P2;durP2;ratioP2
10491;SDS011;5293;51.464;-2.566;2023-11-21T00:00:12;1.70;;;0.83;;
10491;SDS011;5293;51.464;-2.566;2023-11-21T00:02:39;2.57;;;1.17;;
10491;SDS011;5293;51.464;-2.566;2023-11-21T00:05:07;3.67;;;1.13;;
10491;SDS011;5293;51.464;-2.566;2023-11-21T00:07:34;3.20;;;0.90;;
10491;SDS011;5293;51.464;-2.566;2023-11-21T00:10:00;3.03;;;1.20;;
10491;SDS011;5293;51.464;-2.566;2023-11-21T00:12:27;5.93;;;1.30;;
10491;SDS011;5293;51.464;-2.566;2023-11-21T00:14:54;4.67;;;1.20;;
10491;SDS011;5293;51.464;-2.566;2023-11-21T00:17:20;2.20;;;1.30;;
10491;SDS011;5293;51.464;-2.566;2023-11-21T00:19:45;3.63;;;1.10;;
10491;SDS011;5293;51.464;-2.566;2023-11-21T00:22:11;2.13;;;1.10;;
10491;SDS011;5293;51.464;-2.566;2023-11-21T00:24:37;3.50;;;1.20;;
10491;SDS011;5293;51.464;-2.566;2023-11-21T00:27:02;1.90;;;0.80;;
10491;SDS011;5293;51.464;-2.566;2023-11-21T00:29:28;1.23;;;0.97;;
10491;SDS011;5293;51.464;-2.566;2023-11-21T00:31:54;4.20;;;1.17;;
10491;SDS011;5293;51.464;-2.566;2023-11-21T00:34:20;1.97;;;0.70;;
10491;SDS011;5293;51.464;-2.566;2023-11-21T00:36:45;1.93;;;1.23;;
10491;SDS011;5293;51.464;-2.566;2023-11-21T00:39:11;4.27;;;1.13;;
10491;SDS011;5293;51.464;-2.566;2023-11-21T00:41:37;2.47;;;0.73;;
10491;SDS011;5293;51.464;-2.566;2023-11-21T00:44:02;1.73;;;0.80;;
10491;SDS011;5293;51.464;-2.566;2023-11-21T00:46:28;2.50;;;1.17;;
10491;SDS011;5293;51.464;-2.566;2023-11-21T00:48:54;2.37;;;0.90;;
10491;SDS011;5293;51.464;-2.566;2023-11-21T00:51:20;1.20;;;0.93;;
10491;SDS011;5293;51.464;-2.566;2023-11-21T00:53:47;1.13;;;0.80;;
10491;SDS011;5293;51.464;-2.566;2023-11-21T00:56:19;2.30;;;0.73;;
10491;SDS011;5293;51.464;-2.566;2023-11-21T00:58:47;2.23;;;0.93;;
10491;SDS011;5293;51.464;-2.566;2023-11-21T01:01:17;2.07;;;0.60;;
10491;SDS011;5293;51.464;-2.566;2023-11-21T01:03:46;4.90;;;1.10;;
10491;SDS011;5293;51.464;-2.566;2023-11-21T01:06:12;1.73;;;0.90;;
10491;SDS011;5293;51.464;-2.566;2023-11-21T01:08:38;2.77;;;0.80;;
10491;SDS011;5293;51.464;-2.566;2023-11-21T01:11:04;2.60;;;0.90;;
10491;SDS011;5293;51.464;-2.566;2023-11-21T01:13:32;2.27;;;0.77;;
10491;SDS011;5293;51.464;-2.566;2023-11-21T01:15:58;2.47;;;1.00;;
10491;SDS011;5293;51.464;-2.566;2023-11-21T01:18:24;3.67;;;0.97;;
10491;SDS011;5293;51.464;-2.566;2023-11-21T01:20:50;3.50;;;1.17;;
10491;SDS011;5293;51.464;-2.566;2023-11-21T01:23:18;3.03;;;0.70;;
10491;SDS011;5293;51.464;-2.566;2023-11-21T01:25:44;3.10;;;0.90;;
10491;SDS011;5293;51.464;-2.566;2023-11-21T01:28:10;3.70;;;1.30;;
10491;SDS011;5293;51.464;-2.566;2023-11-21T01:30:36;2.77;;;0.93;;
10491;SDS011;5293;51.464;-2.566;2023-11-21T01:33:02;1.00;;;0.67;;
10491;SDS011;5293;51.464;-2.566;2023-11-21T01:35:28;2.50;;;0.93;;
10491;SDS011;5293;51.464;-2.566;2023-11-21T01:37:54;1.23;;;0.63;;
10491;SDS011;5293;51.464;-2.566;2023-11-21T01:40:19;0.90;;;0.80;;
10491;SDS011;5293;51.464;-2.566;2023-11-21T01:42:46;1.27;;;0.90;;
10491;SDS011;5293;51.464;-2.566;2023-11-21T01:45:13;1.10;;;0.80;;
10491;SDS011;5293;51.464;-2.566;2023-11-21T01:47:39;2.47;;;0.60;;
10491;SDS011;5293;51.464;-2.566;2023-11-21T01:50:07;1.60;;;0.67;;
10491;SDS011;5293;51.464;-2.566;2023-11-21T01:52:36;0.87;;;0.60;;
10491;SDS011;5293;51.464;-2.566;2023-11-21T01:55:03;1.63;;;0.93;;
10491;SDS011;5293;51.464;-2.566;2023-11-21T01:57:31;5.33;;;1.33;;
10491;SDS011;5293;51.464;-2.566;2023-11-21T01:59:57;2.43;;;0.90;;
10491;SDS011;5293;51.464;-2.566;2023-11-21T02:02:29;2.30;;;0.87;;
10491;SDS011;5293;51.464;-2.566;2023-11-21T02:04:55;1.77;;;0.83;;
10491;SDS011;5293;51.464;-2.566;2023-11-21T02:07:20;6.40;;;0.87;;
10491;SDS011;5293;51.464;-2.566;2023-11-21T02:09:48;2.60;;;0.77;;
10491;SDS011;5293;51.464;-2.566;2023-11-21T02:12:14;1.53;;;0.73;;
10491;SDS011;5293;51.464;-2.566;2023-11-21T02:14:40;2.63;;;1.40;;
10491;SDS011;5293;51.464;-2.566;2023-11-21T02:17:06;0.93;;;0.80;;
10491;SDS011;5293;51.464;-2.566;2023-11-21T02:19:31;1.63;;;0.73;;
10491;SDS011;5293;51.464;-2.566;2023-11-21T02:21:57;2.80;;;0.97;;
10491;SDS011;5293;51.464;-2.566;2023-11-21T02:24:25;1.53;;;0.87;;
10491;SDS011;5293;51.464;-2.566;2023-11-21T02:26:52;1.03;;;0.90;;
10491;SDS011;5293;51.464;-2.566;2023-11-21T02:29:18;1.07;;;1.03;;
10491;SDS011;5293;51.464;-2.566;2023-11-21T02:31:47;2.00;;;1.00;;
10491;SDS011;5293;51.464;-2.566;2023-11-21T02:34:16;3.53;;;1.13;;
10491;SDS011;5293;51.464;-2.566;2023-11-21T02:36:46;2.37;;;1.13;;
10491;SDS011;5293;51.464;-2.566;2023-11-21T02:39:14;3.87;;;1.20;;
10491;SDS011;5293;51.464;-2.566;2023-11-21T02:41:40;1.63;;;1.20;;
10491;SDS011;5293;51.464;-2.566;2023-11-21T02:44:06;2.20;;;1.07;;
10491;SDS011;5293;51.464;-2.566;2023-11-21T02:46:32;1.77;;;1.10;;
10491;SDS011;5293;51.464;-2.566;2023-11-21T02:48:59;1.10;;;1.00;;
10491;SDS011;5293;51.464;-2.566;2023-11-21T02:51:28;4.50;;;1.23;;
10491;SDS011;5293;51.464;-2.566;2023-11-21T02:53:55;1.30;;;1.20;;
10491;SDS011;5293;51.464;-2.566;2023-11-21T02:56:24;2.40;;;1.67;;
10491;SDS011;5293;51.464;-2.566;2023-11-21T02:58:51;3.87;;;1.57;;
10491;SDS011;5293;51.464;-2.566;2023-11-21T03:01:17;2.50;;;1.70;;
10491;SDS011;5293;51.464;-2.566;2023-11-21T03:03:43;2.67;;;1.50;;
10491;SDS011;5293;51.464;-2.566;2023-11-21T03:06:09;2.33;;;1.93;;
10491;SDS011;5293;51.464;-2.566;2023-11-21T03:08:34;2.47;;;1.80;;
10491;SDS011;5293;51.464;-2.566;2023-11-21T03:11:00;4.60;;;2.00;;
10491;SDS011;5293;51.464;-2.566;2023-11-21T03:13:28;2.37;;;2.00;;
10491;SDS011;5293;51.464;-2.566;2023-11-21T03:15:54;4.97;;;2.03;;
10491;SDS011;5293;51.464;-2.566;2023-11-21T03:18:20;2.13;;;1.83;;
10491;SDS011;5293;51.464;-2.566;2023-11-21T03:20:47;1.87;;;1.77;;
10491;SDS011;5293;51.464;-2.566;2023-11-21T03:23:12;2.63;;;2.03;;
10491;SDS011;5293;51.464;-2.566;2023-11-21T03:25:38;2.90;;;2.53;;
10491;SDS011;5293;51.464;-2.566;2023-11-21T03:28:04;2.70;;;1.87;;
10491;SDS011;5293;51.464;-2.566;2023-11-21T03:30:29;3.53;;;2.60;;
10491;SDS011;5293;51.464;-2.566;2023-11-21T03:32:55;2.53;;;2.30;;
10491;SDS011;5293;51.464;-2.566;2023-11-21T03:35:21;6.37;;;3.27;;
10491;SDS011;5293;51.464;-2.566;2023-11-21T03:37:48;3.87;;;3.40;;
10491;SDS011;5293;51.464;-2.566;2023-11-21T03:40:13;3.20;;;2.90;;
10491;SDS011;5293;51.464;-2.566;2023-11-21T03:42:39;8.97;;;4.27;;
10491;SDS011;5293;51.464;-2.566;2023-11-21T03:45:05;5.60;;;4.03;;
10491;SDS011;5293;51.464;-2.566;2023-11-21T03:47:31;5.90;;;4.10;;
10491;SDS011;5293;51.464;-2.566;2023-11-21T03:49:57;5.03;;;4.53;;
10491;SDS011;5293;51.464;-2.566;2023-11-21T03:52:24;4.40;;;4.00;;
10491;SDS011;5293;51.464;-2.566;2023-11-21T03:54:50;4.77;;;4.17;;
10491;SDS011;5293;51.464;-2.566;2023-11-21T03:57:15;5.20;;;4.70;;
10491;SDS011;5293;51.464;-2.566;2023-11-21T03:59:41;5.07;;;4.53;;
10491;SDS011;5293;51.464;-2.566;2023-11-21T04:02:08;7.73;;;5.30;;
10491;SDS011;5293;51.464;-2.566;2023-11-21T04:04:35;6.40;;;5.53;;
10491;SDS011;5293;51.464;-2.566;2023-11-21T04:07:01;5.50;;;5.00;;
10491;SDS011;5293;51.464;-2.566;2023-11-21T04:09:27;5.13;;;4.67;;
10491;SDS011;5293;51.464;-2.566;2023-11-21T04:11:53;5.13;;;4.60;;
10491;SDS011;5293;51.464;-2.566;2023-11-21T04:14:19;5.40;;;4.90;;
10491;SDS011;5293;51.464;-2.566;2023-11-21T04:16:44;4.43;;;4.13;;
10491;SDS011;5293;51.464;-2.566;2023-11-21T04:19:10;5.10;;;4.70;;
10491;SDS011;5293;51.464;-2.566;2023-11-21T04:21:36;6.97;;;4.50;;
10491;SDS011;5293;51.464;-2.566;2023-11-21T04:24:02;4.23;;;3.90;;
10491;SDS011;5293;51.464;-2.566;2023-11-21T04:26:28;5.00;;;4.17;;
10491;SDS011;5293;51.464;-2.566;2023-11-21T04:28:54;4.50;;;4.10;;
10491;SDS011;5293;51.464;-2.566;2023-11-21T04:31:19;4.47;;;4.17;;
10491;SDS011;5293;51.464;-2.566;2023-11-21T04:33:45;3.80;;;3.50;;
10491;SDS011;5293;51.464;-2.566;2023-11-21T04:36:11;3.63;;;3.10;;
10491;SDS011;5293;51.464;-2.566;2023-11-21T04:38:36;3.37;;;2.73;;
10491;SDS011;5293;51.464;-2.566;2023-11-21T04:41:02;3.53;;;2.70;;
10491;SDS011;5293;51.464;-2.566;2023-11-21T04:43:28;2.23;;;2.00;;
10491;SDS011;5293;51.464;-2.566;2023-11-21T04:45:54;1.70;;;1.60;;
10491;SDS011;5293;51.464;-2.566;2023-11-21T04:48:20;2.20;;;1.47;;
10491;SDS011;5293;51.464;-2.566;2023-11-21T04:50:46;2.47;;;1.40;;
10491;SDS011;5293;51.464;-2.566;2023-11-21T04:53:11;1.30;;;1.20;;
10491;SDS011;5293;51.464;-2.566;2023-11-21T04:55:40;1.20;;;1.10;;
10491;SDS011;5293;51.464;-2.566;2023-11-21T04:58:06;1.30;;;1.20;;
10491;SDS011;5293;51.464;-2.566;2023-11-21T05:00:33;1.40;;;1.30;;
10491;SDS011;5293;51.464;-2.566;2023-11-21T05:02:59;1.40;;;1.17;;
10491;SDS011;5293;51.464;-2.566;2023-11-21T05:05:26;1.50;;;1.40;;
10491;SDS011;5293;51.464;-2.566;2023-11-21T05:07:52;1.50;;;1.40;;
10491;SDS011;5293;51.464;-2.566;2023-11-21T05:10:18;1.27;;;1.27;;
10491;SDS011;5293;51.464;-2.566;2023-11-21T05:12:45;2.10;;;1.30;;
10491;SDS011;5293;51.464;-2.566;2023-11-21T05:15:13;1.10;;;1.10;;
10491;SDS011;5293;51.464;-2.566;2023-11-21T05:17:40;1.17;;;1.17;;
10491;SDS011;5293;51.464;-2.566;2023-11-21T05:20:07;2.63;;;1.83;;
10491;SDS011;5293;51.464;-2.566;2023-11-21T05:22:35;1.10;;;1.10;;
10491;SDS011;5293;51.464;-2.566;2023-11-21T05:25:01;1.10;;;1.10;;
10491;SDS011;5293;51.464;-2.566;2023-11-21T05:27:28;1.00;;;1.00;;
10491;SDS011;5293;51.464;-2.566;2023-11-21T05:29:54;1.03;;;0.90;;
10491;SDS011;5293;51.464;-2.566;2023-11-21T05:32:20;2.00;;;1.07;;
10491;SDS011;5293;51.464;-2.566;2023-11-21T05:34:46;1.07;;;1.00;;
10491;SDS011;5293;51.464;-2.566;2023-11-21T05:37:11;0.73;;;0.73;;
10491;SDS011;5293;51.464;-2.566;2023-11-21T05:39:37;0.83;;;0.70;;
10491;SDS011;5293;51.464;-2.566;2023-11-21T05:42:03;1.00;;;1.00;;
10491;SDS011;5293;51.464;-2.566;2023-11-21T05:44:29;1.00;;;1.00;;
10491;SDS011;5293;51.464;-2.566;2023-11-21T05:46:55;1.10;;;0.90;;
10491;SDS011;5293;51.464;-2.566;2023-11-21T05:49:20;1.43;;;0.67;;
10491;SDS011;5293;51.464;-2.566;2023-11-21T05:51:46;0.70;;;0.70;;
10491;SDS011;5293;51.464;-2.566;2023-11-21T05:54:12;0.90;;;0.90;;
10491;SDS011;5293;51.464;-2.566;2023-11-21T05:56:38;0.73;;;0.73;;
10491;SDS011;5293;51.464;-2.566;2023-11-21T05:59:04;1.93;;;0.83;;
10491;SDS011;5293;51.464;-2.566;2023-11-21T06:01:29;0.73;;;0.73;;
10491;SDS011;5293;51.464;-2.566;2023-11-21T06:03:55;1.50;;;0.70;;
10491;SDS011;5293;51.464;-2.566;2023-11-21T06:06:21;0.83;;;0.77;;
10491;SDS011;5293;51.464;-2.566;2023-11-21T06:08:50;0.50;;;0.50;;
10491;SDS011;5293;51.464;-2.566;2023-11-21T06:11:16;0.80;;;0.73;;
10491;SDS011;5293;51.464;-2.566;2023-11-21T06:13:42;0.67;;;0.63;;
10491;SDS011;5293;51.464;-2.566;2023-11-21T06:16:08;0.93;;;0.73;;
10491;SDS011;5293;51.464;-2.566;2023-11-21T06:18:34;0.70;;;0.70;;
10491;SDS011;5293;51.464;-2.566;2023-11-21T06:21:00;0.70;;;0.67;;
10491;SDS011;5293;51.464;-2.566;2023-11-21T06:23:26;1.33;;;0.53;;
10491;SDS011;5293;51.464;-2.566;2023-11-21T06:25:52;0.60;;;0.60;;
10491;SDS011;5293;51.464;-2.566;2023-11-21T06:28:18;0.70;;;0.70;;
10491;SDS011;5293;51.464;-2.566;2023-11-21T06:30:43;0.80;;;0.80;;
10491;SDS011;5293;51.464;-2.566;2023-11-21T06:33:10;0.83;;;0.60;;
10491;SDS011;5293;51.464;-2.566;2023-11-21T06:35:36;0.60;;;0.60;;
10491;SDS011;5293;51.464;-2.566;2023-11-21T06:38:02;1.70;;;0.80;;
10491;SDS011;5293;51.464;-2.566;2023-11-21T06:40:28;1.30;;;1.20;;
10491;SDS011;5293;51.464;-2.566;2023-11-21T06:42:53;0.60;;;0.60;;
10491;SDS011;5293;51.464;-2.566;2023-11-21T06:45:19;0.70;;;0.60;;
10491;SDS011;5293;51.464;-2.566;2023-11-21T06:47:45;0.50;;;0.50;;
10491;SDS011;5293;51.464;-2.566;2023-11-21T06:50:11;0.63;;;0.63;;
10491;SDS011;5293;51.464;-2.566;2023-11-21T06:52:36;3.17;;;0.90;;
10491;SDS011;5293;51.464;-2.566;2023-11-21T06:55:03;1.23;;;0.70;;
10491;SDS011;5293;51.464;-2.566;2023-11-21T06:57:29;1.27;;;0.67;;
10491;SDS011;5293;51.464;-2.566;2023-11-21T06:59:56;0.60;;;0.60;;
10491;SDS011;5293;51.464;-2.566;2023-11-21T07:02:22;1.27;;;0.60;;
10491;SDS011;5293;51.464;-2.566;2023-11-21T07:04:48;1.70;;;0.60;;
10491;SDS011;5293;51.464;-2.566;2023-11-21T07:07:13;0.73;;;0.70;;
10491;SDS011;5293;51.464;-2.566;2023-11-21T07:09:39;1.33;;;0.60;;
10491;SDS011;5293;51.464;-2.566;2023-11-21T07:12:05;1.80;;;0.67;;
10491;SDS011;5293;51.464;-2.566;2023-11-21T07:14:33;4.37;;;0.80;;
10491;SDS011;5293;51.464;-2.566;2023-11-21T07:17:04;0.63;;;0.60;;
10491;SDS011;5293;51.464;-2.566;2023-11-21T07:19:29;1.17;;;0.60;;
10491;SDS011;5293;51.464;-2.566;2023-11-21T07:21:55;0.40;;;0.40;;
10491;SDS011;5293;51.464;-2.566;2023-11-21T07:24:21;0.80;;;0.80;;
10491;SDS011;5293;51.464;-2.566;2023-11-21T07:26:48;0.60;;;0.60;;
10491;SDS011;5293;51.464;-2.566;2023-11-21T07:29:14;0.83;;;0.43;;
10491;SDS011;5293;51.464;-2.566;2023-11-21T07:31:39;2.30;;;0.80;;
10491;SDS011;5293;51.464;-2.566;2023-11-21T07:34:06;0.33;;;0.33;;
10491;SDS011;5293;51.464;-2.566;2023-11-21T07:36:33;1.47;;;0.70;;
10491;SDS011;5293;51.464;-2.566;2023-11-21T07:38:59;0.53;;;0.50;;
10491;SDS011;5293;51.464;-2.566;2023-11-21T07:41:25;0.63;;;0.50;;
10491;SDS011;5293;51.464;-2.566;2023-11-21T07:43:51;1.43;;;0.47;;
10491;SDS011;5293;51.464;-2.566;2023-11-21T07:46:16;0.30;;;0.30;;
10491;SDS011;5293;51.464;-2.566;2023-11-21T07:48:43;0.57;;;0.50;;
10491;SDS011;5293;51.464;-2.566;2023-11-21T07:51:09;0.30;;;0.30;;
10491;SDS011;5293;51.464;-2.566;2023-11-21T07:53:35;0.50;;;0.50;;
10491;SDS011;5293;51.464;-2.566;2023-11-21T07:58:31;0.50;;;0.50;;
10491;SDS011;5293;51.464;-2.566;2023-11-21T08:00:58;1.27;;;0.50;;
10491;SDS011;5293;51.464;-2.566;2023-11-21T08:03:28;0.60;;;0.40;;
10491;SDS011;5293;51.464;-2.566;2023-11-21T08:05:57;0.33;;;0.33;;
10491;SDS011;5293;51.464;-2.566;2023-11-21T08:08:23;1.50;;;0.40;;
10491;SDS011;5293;51.464;-2.566;2023-11-21T08:10:49;0.47;;;0.40;;
10491;SDS011;5293;51.464;-2.566;2023-11-21T08:13:21;2.07;;;0.77;;
10491;SDS011;5293;51.464;-2.566;2023-11-21T08:15:48;0.80;;;0.60;;
10491;SDS011;5293;51.464;-2.566;2023-11-21T08:18:14;1.00;;;0.50;;
10491;SDS011;5293;51.464;-2.566;2023-11-21T08:20:40;1.90;;;0.57;;
10491;SDS011;5293;51.464;-2.566;2023-11-21T08:23:05;1.43;;;0.50;;
10491;SDS011;5293;51.464;-2.566;2023-11-21T08:25:31;0.73;;;0.50;;
10491;SDS011;5293;51.464;-2.566;2023-11-21T08:27:59;0.77;;;0.33;;
10491;SDS011;5293;51.464;-2.566;2023-11-21T08:30:25;1.30;;;0.70;;
10491;SDS011;5293;51.464;-2.566;2023-11-21T08:32:54;0.40;;;0.40;;
10491;SDS011;5293;51.464;-2.566;2023-11-21T08:35:23;0.40;;;0.40;;
10491;SDS011;5293;51.464;-2.566;2023-11-21T08:37:51;1.63;;;0.70;;
10491;SDS011;5293;51.464;-2.566;2023-11-21T08:40:18;0.73;;;0.40;;
10491;SDS011;5293;51.464;-2.566;2023-11-21T08:42:45;0.93;;;0.50;;
10491;SDS011;5293;51.464;-2.566;2023-11-21T08:45:11;1.57;;;0.40;;
10491;SDS011;5293;51.464;-2.566;2023-11-21T08:47:38;1.27;;;0.70;;
10491;SDS011;5293;51.464;-2.566;2023-11-21T08:50:05;3.60;;;0.60;;
10491;SDS011;5293;51.464;-2.566;2023-11-21T08:52:32;0.60;;;0.40;;
10491;SDS011;5293;51.464;-2.566;2023-11-21T08:54:58;1.60;;;0.43;;
10491;SDS011;5293;51.464;-2.566;2023-11-21T08:57:27;0.50;;;0.50;;
10491;SDS011;5293;51.464;-2.566;2023-11-21T08:59:53;0.50;;;0.50;;
10491;SDS011;5293;51.464;-2.566;2023-11-21T09:02:21;1.30;;;0.60;;
10491;SDS011;5293;51.464;-2.566;2023-11-21T09:04:50;0.93;;;0.47;;
10491;SDS011;5293;51.464;-2.566;2023-11-21T09:07:17;0.87;;;0.80;;
10491;SDS011;5293;51.464;-2.566;2023-11-21T09:09:45;1.50;;;0.50;;
10491;SDS011;5293;51.464;-2.566;2023-11-21T09:12:14;0.30;;;0.30;;
10491;SDS011;5293;51.464;-2.566;2023-11-21T09:14:40;0.97;;;0.60;;
10491;SDS011;5293;51.464;-2.566;2023-11-21T09:17:07;0.60;;;0.60;;
10491;SDS011;5293;51.464;-2.566;2023-11-21T09:19:39;0.77;;;0.50;;
10491;SDS011;5293;51.464;-2.566;2023-11-21T09:22:05;0.67;;;0.40;;
10491;SDS011;5293;51.464;-2.566;2023-11-21T09:24:32;0.67;;;0.50;;
10491;SDS011;5293;51.464;-2.566;2023-11-21T09:26:58;1.23;;;0.40;;
10491;SDS011;5293;51.464;-2.566;2023-11-21T09:29:25;0.40;;;0.40;;
10491;SDS011;5293;51.464;-2.566;2023-11-21T09:31:51;0.40;;;0.40;;
10491;SDS011;5293;51.464;-2.566;2023-11-21T09:34:17;1.40;;;0.57;;
10491;SDS011;5293;51.464;-2.566;2023-11-21T09:36:46;2.90;;;1.37;;
10491;SDS011;5293;51.464;-2.566;2023-11-21T09:39:13;2.37;;;0.60;;
10491;SDS011;5293;51.464;-2.566;2023-11-21T09:41:43;0.93;;;0.40;;
10491;SDS011;5293;51.464;-2.566;2023-11-21T09:44:14;1.83;;;0.70;;
10491;SDS011;5293;51.464;-2.566;2023-11-21T09:47:00;0.63;;;0.50;;
10491;SDS011;5293;51.464;-2.566;2023-11-21T09:49:27;1.70;;;0.60;;
10491;SDS011;5293;51.464;-2.566;2023-11-21T09:51:54;2.43;;;0.80;;
10491;SDS011;5293;51.464;-2.566;2023-11-21T09:54:23;1.10;;;0.60;;
10491;SDS011;5293;51.464;-2.566;2023-11-21T09:56:50;0.97;;;0.70;;
10491;SDS011;5293;51.464;-2.566;2023-11-21T09:59:16;0.80;;;0.80;;
10491;SDS011;5293;51.464;-2.566;2023-11-21T10:01:41;1.40;;;0.73;;
10491;SDS011;5293;51.464;-2.566;2023-11-21T10:04:08;2.40;;;0.77;;
10491;SDS011;5293;51.464;-2.566;2023-11-21T10:06:38;0.90;;;0.90;;
10491;SDS011;5293;51.464;-2.566;2023-11-21T10:09:06;4.53;;;1.30;;
10491;SDS011;5293;51.464;-2.566;2023-11-21T10:11:38;1.43;;;0.70;;
10491;SDS011;5293;51.464;-2.566;2023-11-21T10:14:11;1.90;;;0.90;;
10491;SDS011;5293;51.464;-2.566;2023-11-21T10:16:38;0.80;;;0.80;;
10491;SDS011;5293;51.464;-2.566;2023-11-21T10:19:05;0.73;;;0.73;;
10491;SDS011;5293;51.464;-2.566;2023-11-21T10:21:33;0.90;;;0.90;;
10491;SDS011;5293;51.464;-2.566;2023-11-21T10:23:59;3.63;;;0.97;;
10491;SDS011;5293;51.464;-2.566;2023-11-21T10:26:25;1.10;;;1.00;;
10491;SDS011;5293;51.464;-2.566;2023-11-21T10:29:00;1.10;;;0.70;;
10491;SDS011;5293;51.464;-2.566;2023-11-21T10:31:29;1.50;;;0.90;;
10491;SDS011;5293;51.464;-2.566;2023-11-21T10:34:11;1.77;;;0.90;;
10491;SDS011;5293;51.464;-2.566;2023-11-21T10:36:37;1.27;;;1.00;;
10491;SDS011;5293;51.464;-2.566;2023-11-21T10:39:03;0.90;;;0.90;;
10491;SDS011;5293;51.464;-2.566;2023-11-21T10:41:29;2.97;;;1.03;;
10491;SDS011;5293;51.464;-2.566;2023-11-21T10:43:55;2.60;;;1.13;;
10491;SDS011;5293;51.464;-2.566;2023-11-21T10:46:21;2.80;;;1.03;;
10491;SDS011;5293;51.464;-2.566;2023-11-21T10:48:52;1.10;;;1.00;;
10491;SDS011;5293;51.464;-2.566;2023-11-21T10:51:20;2.07;;;1.20;;
10491;SDS011;5293;51.464;-2.566;2023-11-21T10:53:46;9.23;;;1.67;;
10491;SDS011;5293;51.464;-2.566;2023-11-21T10:56:12;1.87;;;1.10;;
10491;SDS011;5293;51.464;-2.566;2023-11-21T10:58:45;1.63;;;0.90;;
10491;SDS011;5293;51.464;-2.566;2023-11-21T11:01:11;2.63;;;1.13;;
10491;SDS011;5293;51.464;-2.566;2023-11-21T11:03:39;2.80;;;1.47;;
10491;SDS011;5293;51.464;-2.566;2023-11-21T11:06:06;1.40;;;1.30;;
10491;SDS011;5293;51.464;-2.566;2023-11-21T11:08:36;1.73;;;1.13;;
10491;SDS011;5293;51.464;-2.566;2023-11-21T11:11:04;2.20;;;1.20;;
10491;SDS011;5293;51.464;-2.566;2023-11-21T11:13:30;1.23;;;1.10;;
10491;SDS011;5293;51.464;-2.566;2023-11-21T11:16:01;1.30;;;1.20;;
10491;SDS011;5293;51.464;-2.566;2023-11-21T11:18:30;3.60;;;1.50;;
10491;SDS011;5293;51.464;-2.566;2023-11-21T11:24:05;3.07;;;1.37;;
10491;SDS011;5293;51.464;-2.566;2023-11-21T11:32:58;1.97;;;1.20;;
10491;SDS011;5293;51.464;-2.566;2023-11-21T11:35:50;1.20;;;1.10;;
10491;SDS011;5293;51.464;-2.566;2023-11-21T11:38:36;2.73;;;1.10;;
10491;SDS011;5293;51.464;-2.566;2023-11-21T11:41:02;3.80;;;1.77;;
10491;SDS011;5293;51.464;-2.566;2023-11-21T11:43:30;1.77;;;1.30;;
10491;SDS011;5293;51.464;-2.566;2023-11-21T11:46:07;1.47;;;1.30;;
10491;SDS011;5293;51.464;-2.566;2023-11-21T11:48:35;3.87;;;1.57;;
10491;SDS011;5293;51.464;-2.566;2023-11-21T11:51:11;2.10;;;1.47;;
10491;SDS011;5293;51.464;-2.566;2023-11-21T11:53:46;5.40;;;1.70;;
10491;SDS011;5293;51.464;-2.566;2023-11-21T11:58:48;1.63;;;1.53;;
10491;SDS011;5293;51.464;-2.566;2023-11-21T12:01:18;3.47;;;1.50;;
10491;SDS011;5293;51.464;-2.566;2023-11-21T12:03:44;3.80;;;1.50;;
10491;SDS011;5293;51.464;-2.566;2023-11-21T12:06:33;2.97;;;1.60;;
10491;SDS011;5293;51.464;-2.566;2023-11-21T12:09:01;2.33;;;1.50;;
10491;SDS011;5293;51.464;-2.566;2023-11-21T12:11:33;1.60;;;1.50;;
10491;SDS011;5293;51.464;-2.566;2023-11-21T12:14:00;2.63;;;1.60;;
10491;SDS011;5293;51.464;-2.566;2023-11-21T12:16:32;2.30;;;1.40;;
10491;SDS011;5293;51.464;-2.566;2023-11-21T12:18:58;5.27;;;1.50;;
10491;SDS011;5293;51.464;-2.566;2023-11-21T12:21:23;2.67;;;1.53;;
10491;SDS011;5293;51.464;-2.566;2023-11-21T12:23:50;1.60;;;1.50;;
10491;SDS011;5293;51.464;-2.566;2023-11-21T12:26:16;3.83;;;1.53;;
10491;SDS011;5293;51.464;-2.566;2023-11-21T12:28:41;3.83;;;1.70;;
10491;SDS011;5293;51.464;-2.566;2023-11-21T12:31:08;2.00;;;1.60;;
10491;SDS011;5293;51.464;-2.566;2023-11-21T12:33:34;4.33;;;2.10;;
10491;SDS011;5293;51.464;-2.566;2023-11-21T12:36:00;5.50;;;2.07;;
10491;SDS011;5293;51.464;-2.566;2023-11-21T12:38:33;4.77;;;1.80;;
10491;SDS011;5293;51.464;-2.566;2023-11-21T12:41:00;1.40;;;1.20;;
10491;SDS011;5293;51.464;-2.566;2023-11-21T12:43:25;1.17;;;1.07;;
10491;SDS011;5293;51.464;-2.566;2023-11-21T12:45:51;3.40;;;1.40;;
10491;SDS011;5293;51.464;-2.566;2023-11-21T12:48:31;4.40;;;1.40;;
10491;SDS011;5293;51.464;-2.566;2023-11-21T12:50:57;1.50;;;1.40;;
10491;SDS011;5293;51.464;-2.566;2023-11-21T12:53:25;3.40;;;1.20;;
10491;SDS011;5293;51.464;-2.566;2023-11-21T12:55:51;3.47;;;1.60;;
10491;SDS011;5293;51.464;-2.566;2023-11-21T12:58:17;1.37;;;1.27;;
10491;SDS011;5293;51.464;-2.566;2023-11-21T13:00:48;3.60;;;1.33;;
10491;SDS011;5293;51.464;-2.566;2023-11-21T13:03:15;1.80;;;1.60;;
10491;SDS011;5293;51.464;-2.566;2023-11-21T13:05:48;2.53;;;1.33;;
10491;SDS011;5293;51.464;-2.566;2023-11-21T13:08:19;1.67;;;1.10;;
10491;SDS011;5293;51.464;-2.566;2023-11-21T13:10:49;2.53;;;1.40;;
10491;SDS011;5293;51.464;-2.566;2023-11-21T13:13:16;1.53;;;1.33;;
10491;SDS011;5293;51.464;-2.566;2023-11-21T13:18:26;3.27;;;1.30;;
10491;SDS011;5293;51.464;-2.566;2023-11-21T13:20:53;1.37;;;1.00;;
10491;SDS011;5293;51.464;-2.566;2023-11-21T13:23:20;4.03;;;2.10;;
10491;SDS011;5293;51.464;-2.566;2023-11-21T13:25:45;2.73;;;1.67;;
10491;SDS011;5293;51.464;-2.566;2023-11-21T13:28:12;4.13;;;1.60;;
10491;SDS011;5293;51.464;-2.566;2023-11-21T13:30:40;3.07;;;1.30;;
10491;SDS011;5293;51.464;-2.566;2023-11-21T13:33:07;3.80;;;1.80;;
10491;SDS011;5293;51.464;-2.566;2023-11-21T13:35:34;4.57;;;2.00;;
10491;SDS011;5293;51.464;-2.566;2023-11-21T13:40:34;2.97;;;1.13;;
10491;SDS011;5293;51.464;-2.566;2023-11-21T13:43:12;2.43;;;1.17;;
10491;SDS011;5293;51.464;-2.566;2023-11-21T13:45:39;3.03;;;1.70;;
10491;SDS011;5293;51.464;-2.566;2023-11-21T13:48:06;1.63;;;1.30;;
10491;SDS011;5293;51.464;-2.566;2023-11-21T13:50:36;4.00;;;1.37;;
10491;SDS011;5293;51.464;-2.566;2023-11-21T13:53:02;3.40;;;1.60;;
10491;SDS011;5293;51.464;-2.566;2023-11-21T13:55:43;4.47;;;1.80;;
10491;SDS011;5293;51.464;-2.566;2023-11-21T13:58:10;2.97;;;1.23;;
10491;SDS011;5293;51.464;-2.566;2023-11-21T14:00:42;2.53;;;1.17;;
10491;SDS011;5293;51.464;-2.566;2023-11-21T14:03:11;2.20;;;1.00;;
10491;SDS011;5293;51.464;-2.566;2023-11-21T14:05:47;2.67;;;1.17;;
10491;SDS011;5293;51.464;-2.566;2023-11-21T14:08:17;1.80;;;1.20;;
10491;SDS011;5293;51.464;-2.566;2023-11-21T14:10:49;1.63;;;1.10;;
10491;SDS011;5293;51.464;-2.566;2023-11-21T14:13:22;2.90;;;1.10;;
10491;SDS011;5293;51.464;-2.566;2023-11-21T14:15:49;4.47;;;1.60;;
10491;SDS011;5293;51.464;-2.566;2023-11-21T14:18:17;5.20;;;1.40;;
10491;SDS011;5293;51.464;-2.566;2023-11-21T14:20:52;1.23;;;1.13;;
10491;SDS011;5293;51.464;-2.566;2023-11-21T14:23:18;2.67;;;1.10;;
10491;SDS011;5293;51.464;-2.566;2023-11-21T14:25:43;2.83;;;1.77;;
10491;SDS011;5293;51.464;-2.566;2023-11-21T14:28:09;1.27;;;1.00;;
10491;SDS011;5293;51.464;-2.566;2023-11-21T14:30:37;1.30;;;1.20;;
10491;SDS011;5293;51.464;-2.566;2023-11-21T14:33:04;3.00;;;1.40;;
10491;SDS011;5293;51.464;-2.566;2023-11-21T14:35:31;2.50;;;1.27;;
10491;SDS011;5293;51.464;-2.566;2023-11-21T14:37:58;3.57;;;1.47;;
10491;SDS011;5293;51.464;-2.566;2023-11-21T14:40:25;3.40;;;1.50;;
10491;SDS011;5293;51.464;-2.566;2023-11-21T14:42:54;4.20;;;2.37;;
10491;SDS011;5293;51.464;-2.566;2023-11-21T14:45:22;3.63;;;1.67;;
10491;SDS011;5293;51.464;-2.566;2023-11-21T14:47:51;4.67;;;2.80;;
10491;SDS011;5293;51.464;-2.566;2023-11-21T14:50:41;3.70;;;1.60;;
10491;SDS011;5293;51.464;-2.566;2023-11-21T14:53:07;2.00;;;1.60;;
10491;SDS011;5293;51.464;-2.566;2023-11-21T14:55:40;5.83;;;1.60;;
10491;SDS011;5293;51.464;-2.566;2023-11-21T14:58:26;5.00;;;2.60;;
10491;SDS011;5293;51.464;-2.566;2023-11-21T15:00:56;3.93;;;1.60;;
10491;SDS011;5293;51.464;-2.566;2023-11-21T15:03:23;4.97;;;1.50;;
10491;SDS011;5293;51.464;-2.566;2023-11-21T15:05:58;2.83;;;1.30;;
10491;SDS011;5293;51.464;-2.566;2023-11-21T15:08:42;2.77;;;1.40;;